createdAt,value
2022-11-21T00:00:03.874Z,32.87
2022-11-21T00:01:03.822Z,33.03
2022-11-21T00:02:03.917Z,33.19
2022-11-21T00:03:04.034Z,32.71
2022-11-21T00:04:03.867Z,32.87
2022-11-21T00:05:03.774Z,34.00
2022-11-21T00:06:03.782Z,33.03
2022-11-21T00:07:03.782Z,32.87
2022-11-21T00:08:03.795Z,33.03
2022-11-21T00:09:03.868Z,33.84
2022-11-21T00:10:03.770Z,33.03
2022-11-21T00:11:03.693Z,33.03
2022-11-21T00:12:03.698Z,32.87
2022-11-21T00:13:03.648Z,33.19
2022-11-21T00:14:03.669Z,32.87
2022-11-21T00:15:03.728Z,32.87
2022-11-21T00:16:03.986Z,33.19
2022-11-21T00:17:03.593Z,32.71
2022-11-21T00:18:03.635Z,33.19
2022-11-21T00:19:03.597Z,33.03
2022-11-21T00:20:03.597Z,32.87
2022-11-21T00:21:03.705Z,32.87
2022-11-21T00:22:04.898Z,32.55
2022-11-21T00:23:03.699Z,32.55
2022-11-21T00:24:04.303Z,32.87
2022-11-21T00:25:03.576Z,33.19
2022-11-21T00:26:03.528Z,33.03
2022-11-21T00:27:03.857Z,34.16
2022-11-21T00:28:03.548Z,33.03
2022-11-21T00:29:03.526Z,33.35
2022-11-21T00:30:03.476Z,33.19
2022-11-21T00:31:03.482Z,32.87
2022-11-21T00:32:03.393Z,33.03
2022-11-21T00:33:03.579Z,33.03
2022-11-21T00:34:03.394Z,32.87
2022-11-21T00:35:03.463Z,32.87
2022-11-21T00:36:03.328Z,32.87
2022-11-21T00:37:03.459Z,33.19
2022-11-21T00:38:03.308Z,32.71
2022-11-21T00:39:03.524Z,33.35
2022-11-21T00:40:03.309Z,32.71
2022-11-21T00:41:03.303Z,33.19
2022-11-21T00:42:03.262Z,33.03
2022-11-21T00:43:03.251Z,33.19
2022-11-21T00:44:03.218Z,32.71
2022-11-21T00:45:03.461Z,32.87
2022-11-21T00:46:03.488Z,32.71
2022-11-21T00:47:03.205Z,32.87
2022-11-21T00:48:03.170Z,33.03
2022-11-21T00:49:03.178Z,32.87
2022-11-21T00:50:03.133Z,33.19
2022-11-21T00:51:03.301Z,32.87
2022-11-21T00:52:03.292Z,32.71
2022-11-21T00:53:03.128Z,32.55
2022-11-21T00:54:03.099Z,32.87
2022-11-21T00:55:03.096Z,32.71
2022-11-21T00:56:03.055Z,32.87
2022-11-21T00:57:03.143Z,32.87
2022-11-21T00:58:03.056Z,32.55
2022-11-21T00:59:03.100Z,33.03
2022-11-21T01:00:03.005Z,33.19
2022-11-21T01:01:03.049Z,32.87
2022-11-21T01:02:02.967Z,32.87
2022-11-21T01:03:03.137Z,33.03
2022-11-21T01:04:02.975Z,33.19
2022-11-21T01:05:02.964Z,32.71
2022-11-21T01:06:02.916Z,33.03
2022-11-21T01:07:02.999Z,32.71
2022-11-21T01:08:02.884Z,33.03
2022-11-21T01:09:03.051Z,33.03
2022-11-21T01:10:02.901Z,33.35
2022-11-21T01:11:02.874Z,33.03
2022-11-21T01:12:02.839Z,33.35
2022-11-21T01:13:02.844Z,33.19
2022-11-21T01:14:02.799Z,32.87
2022-11-21T01:15:02.953Z,33.03
2022-11-21T01:16:02.948Z,32.71
2022-11-21T01:17:02.792Z,33.03
2022-11-21T01:18:02.759Z,32.87
2022-11-21T01:19:02.764Z,32.71
2022-11-21T01:20:02.748Z,33.19
2022-11-21T01:21:02.888Z,33.35
2022-11-21T01:22:02.733Z,33.03
2022-11-21T01:23:02.711Z,33.52
2022-11-21T01:24:02.668Z,33.03
2022-11-21T01:25:02.691Z,34.64
2022-11-21T01:26:02.646Z,33.19
2022-11-21T01:27:02.850Z,33.35
2022-11-21T01:28:02.639Z,33.03
2022-11-21T01:29:02.623Z,33.19
2022-11-21T01:30:02.575Z,32.71
2022-11-21T01:31:02.595Z,33.03
2022-11-21T01:32:02.557Z,33.35
2022-11-21T01:33:02.656Z,32.71
2022-11-21T01:34:02.562Z,33.35
2022-11-21T01:35:02.548Z,33.03
2022-11-21T01:36:02.503Z,33.19
2022-11-21T01:37:02.526Z,33.35
2022-11-21T01:38:02.478Z,33.19
2022-11-21T01:39:02.614Z,32.71
2022-11-21T01:40:02.486Z,33.03
2022-11-21T01:41:02.457Z,32.87
2022-11-21T01:42:02.434Z,33.03
2022-11-21T01:43:02.476Z,33.35
2022-11-21T01:44:02.415Z,33.52
2022-11-21T01:45:02.534Z,35.29
2022-11-21T01:46:02.438Z,33.03
2022-11-21T01:47:02.382Z,33.19
2022-11-21T01:48:02.334Z,33.03
2022-11-21T01:49:02.348Z,33.19
2022-11-21T01:50:02.331Z,32.87
2022-11-21T01:51:02.456Z,33.03
2022-11-21T01:52:02.363Z,33.03
2022-11-21T01:53:02.314Z,32.71
2022-11-21T01:54:02.266Z,33.03
2022-11-21T01:55:02.278Z,33.35
2022-11-21T01:56:02.234Z,33.52
2022-11-21T01:57:02.379Z,32.87
2022-11-21T01:58:02.388Z,33.03
2022-11-21T01:59:02.216Z,33.03
2022-11-21T02:00:02.233Z,33.68
2022-11-21T02:01:02.220Z,33.03
2022-11-21T02:02:02.153Z,33.35
2022-11-21T02:03:02.864Z,33.03
2022-11-21T02:04:02.154Z,33.19
2022-11-21T02:05:02.125Z,33.03
2022-11-21T02:06:02.106Z,33.19
2022-11-21T02:07:02.209Z,33.35
2022-11-21T02:08:02.081Z,33.19
2022-11-21T02:09:02.181Z,34.32
2022-11-21T02:10:02.074Z,33.68
2022-11-21T02:11:02.048Z,33.03
2022-11-21T02:12:02.003Z,33.03
2022-11-21T02:13:02.052Z,33.35
2022-11-21T02:14:02.049Z,33.03
2022-11-21T02:15:02.146Z,33.35
2022-11-21T02:16:02.007Z,33.52
2022-11-21T02:17:01.963Z,33.52
2022-11-21T02:18:01.944Z,33.35
2022-11-21T02:19:01.944Z,32.87
2022-11-21T02:20:01.904Z,33.19
2022-11-21T02:21:02.002Z,32.71
2022-11-21T02:22:01.912Z,33.52
2022-11-21T02:23:02.078Z,32.87
2022-11-21T02:24:01.849Z,32.55
2022-11-21T02:25:01.868Z,32.71
2022-11-21T02:26:01.824Z,32.87
2022-11-21T02:27:01.919Z,33.52
2022-11-21T02:28:01.966Z,33.03
2022-11-21T02:29:01.812Z,32.71
2022-11-21T02:30:01.766Z,33.19
2022-11-21T02:31:01.832Z,32.71
2022-11-21T02:32:01.738Z,33.03
2022-11-21T02:33:01.959Z,33.35
2022-11-21T02:34:01.746Z,33.03
2022-11-21T02:35:01.732Z,33.03
2022-11-21T02:36:01.681Z,33.03
2022-11-21T02:37:01.738Z,33.03
2022-11-21T02:38:01.656Z,33.35
2022-11-21T02:39:01.869Z,32.87
2022-11-21T02:40:01.659Z,33.52
2022-11-21T02:41:01.638Z,35.77
2022-11-21T02:42:01.610Z,33.35
2022-11-21T02:43:01.647Z,32.87
2022-11-21T02:44:01.578Z,33.19
2022-11-21T02:45:01.718Z,32.87
2022-11-21T02:46:01.622Z,33.35
2022-11-21T02:47:01.574Z,32.71
2022-11-21T02:48:04.245Z,33.03
2022-11-21T02:49:01.522Z,33.68
2022-11-21T02:50:01.567Z,33.35
2022-11-21T02:51:01.593Z,32.71
2022-11-21T02:52:01.490Z,32.87
2022-11-21T02:53:01.473Z,32.87
2022-11-21T02:54:01.440Z,33.19
2022-11-21T02:55:01.453Z,33.52
2022-11-21T02:56:01.409Z,32.71
2022-11-21T02:57:01.492Z,33.03
2022-11-21T02:58:04.937Z,33.03
2022-11-21T02:59:01.389Z,32.87
2022-11-21T03:00:01.377Z,33.35
2022-11-21T03:01:01.446Z,33.35
2022-11-21T03:02:01.330Z,33.03
2022-11-21T03:03:01.474Z,32.71
2022-11-21T03:04:01.467Z,32.71
2022-11-21T03:05:01.324Z,33.03
2022-11-21T03:06:01.267Z,33.03
2022-11-21T03:07:01.377Z,33.03
2022-11-21T03:08:01.260Z,33.19
2022-11-21T03:09:01.526Z,32.87
2022-11-21T03:10:01.257Z,32.87
2022-11-21T03:11:01.239Z,33.03
2022-11-21T03:12:01.196Z,32.71
2022-11-21T03:13:01.595Z,33.03
2022-11-21T03:14:01.243Z,33.03
2022-11-21T03:15:01.419Z,33.03
2022-11-21T03:16:01.163Z,32.71
2022-11-21T03:17:01.200Z,32.87
2022-11-21T03:18:01.204Z,33.35
2022-11-21T03:19:01.508Z,32.87
2022-11-21T03:20:01.079Z,32.71
2022-11-21T03:21:01.195Z,33.19
2022-11-21T03:22:01.102Z,32.87
2022-11-21T03:23:01.270Z,32.87
2022-11-21T03:24:01.043Z,33.35
2022-11-21T03:25:01.045Z,32.87
2022-11-21T03:26:01.007Z,33.52
2022-11-21T03:27:01.027Z,32.87
2022-11-21T03:28:01.003Z,33.35
2022-11-21T03:29:01.624Z,33.35
2022-11-21T03:30:00.946Z,32.87
2022-11-21T03:31:00.957Z,33.19
2022-11-21T03:32:00.922Z,32.71
2022-11-21T03:33:00.947Z,32.87
2022-11-21T03:34:00.936Z,32.87
2022-11-21T03:35:01.037Z,33.35
2022-11-21T03:36:00.867Z,32.71
2022-11-21T03:37:00.931Z,32.39
2022-11-21T03:38:00.831Z,33.19
2022-11-21T03:39:00.842Z,33.03
2022-11-21T03:40:00.853Z,34.97
2022-11-21T03:41:00.986Z,32.55
2022-11-21T03:42:00.776Z,32.87
2022-11-21T03:43:00.804Z,33.03
2022-11-21T03:44:00.759Z,32.87
2022-11-21T03:45:00.786Z,32.87
2022-11-21T03:46:00.751Z,33.03
2022-11-21T03:47:00.844Z,33.68
2022-11-21T03:48:00.709Z,32.71
2022-11-21T03:49:00.706Z,32.87
2022-11-21T03:50:00.754Z,32.71
2022-11-21T03:51:00.675Z,32.87
2022-11-21T03:52:00.670Z,33.35
2022-11-21T03:53:00.737Z,34.16
2022-11-21T03:54:00.621Z,33.03
2022-11-21T03:55:00.676Z,33.35
2022-11-21T03:56:00.619Z,33.35
2022-11-21T03:57:00.613Z,32.87
2022-11-21T03:58:00.610Z,32.71
2022-11-21T03:59:00.763Z,32.71
2022-11-21T04:00:00.536Z,32.55
2022-11-21T04:01:00.559Z,32.55
2022-11-21T04:02:00.580Z,32.87
2022-11-21T04:03:00.534Z,33.19
2022-11-21T04:04:00.516Z,32.87
2022-11-21T04:05:01.644Z,32.87
2022-11-21T04:06:00.472Z,32.55
2022-11-21T04:07:00.550Z,32.55
2022-11-21T04:08:00.418Z,33.03
2022-11-21T04:09:00.447Z,32.87
2022-11-21T04:10:00.593Z,32.87
2022-11-21T04:11:00.524Z,33.03
2022-11-21T04:12:04.994Z,33.19
2022-11-21T04:13:01.380Z,33.03
2022-11-21T04:14:00.367Z,32.87
2022-11-21T04:15:00.364Z,32.71
2022-11-21T04:16:00.364Z,32.87
2022-11-21T04:17:00.467Z,32.87
2022-11-21T04:18:00.295Z,33.03
2022-11-21T04:19:00.330Z,32.71
2022-11-21T04:20:00.294Z,32.87
2022-11-21T04:21:00.323Z,33.03
2022-11-21T04:22:00.273Z,32.87
2022-11-21T04:23:00.372Z,32.87
2022-11-21T04:24:00.286Z,33.19
2022-11-21T04:25:00.493Z,33.19
2022-11-21T04:26:00.191Z,33.03
2022-11-21T04:27:00.345Z,32.71
2022-11-21T04:28:00.294Z,32.87
2022-11-21T04:29:00.324Z,32.55
2022-11-21T04:30:00.274Z,35.13
2022-11-21T04:31:00.834Z,32.87
2022-11-21T04:32:00.131Z,32.87
2022-11-21T04:33:00.171Z,32.71
2022-11-21T04:34:00.173Z,32.71
2022-11-21T04:35:00.139Z,32.87
2022-11-21T04:36:00.147Z,32.39
2022-11-21T04:37:00.303Z,33.03
2022-11-21T04:38:00.164Z,32.87
2022-11-21T04:39:00.137Z,32.55
2022-11-21T04:40:00.163Z,32.71
2022-11-21T04:41:00.144Z,32.87
2022-11-21T04:42:00.148Z,32.87
2022-11-21T04:43:00.108Z,32.71
2022-11-21T04:44:00.062Z,32.71
2022-11-21T04:44:59.973Z,32.55
2022-11-21T04:46:00.109Z,32.87
2022-11-21T04:47:05.016Z,32.87
2022-11-21T04:48:00.907Z,33.03
2022-11-21T04:48:59.888Z,32.71
2022-11-21T04:49:59.935Z,32.71
2022-11-21T04:50:59.836Z,33.19
2022-11-21T04:52:00.099Z,33.52
2022-11-21T04:53:00.134Z,32.87
2022-11-21T04:53:59.872Z,33.03
2022-11-21T04:55:00.732Z,33.35
2022-11-21T04:55:59.947Z,34.32
2022-11-21T04:57:00.107Z,33.52
2022-11-21T04:58:00.054Z,32.87
2022-11-21T04:59:00.041Z,32.71
2022-11-21T04:59:59.842Z,32.71
2022-11-21T05:00:59.853Z,32.71
2022-11-21T05:01:59.710Z,32.55
2022-11-21T05:02:59.721Z,32.71
2022-11-21T05:03:59.830Z,33.35
2022-11-21T05:04:59.802Z,32.87
2022-11-21T05:05:59.747Z,32.71
2022-11-21T05:06:59.811Z,32.87
2022-11-21T05:07:59.802Z,32.87
2022-11-21T05:08:59.678Z,32.71
2022-11-21T05:09:59.747Z,32.39
2022-11-21T05:10:59.827Z,32.87
2022-11-21T05:11:59.651Z,32.87
2022-11-21T05:13:30.725Z,32.71
2022-11-21T05:14:30.640Z,32.55
2022-11-21T05:15:32.645Z,32.87
2022-11-21T05:16:30.610Z,32.55
2022-11-21T05:17:30.965Z,32.87
2022-11-21T05:18:30.469Z,32.55
2022-11-21T05:19:30.777Z,32.39
2022-11-21T05:20:33.329Z,32.55
2022-11-21T05:21:32.715Z,32.87
2022-11-21T05:22:30.401Z,32.39
2022-11-21T05:23:30.494Z,32.23
2022-11-21T05:24:30.620Z,32.71
2022-11-21T05:25:31.931Z,42.06
2022-11-21T05:26:30.342Z,32.87
2022-11-21T05:27:31.699Z,41.09
2022-11-21T05:28:30.320Z,32.39
2022-11-21T05:29:30.878Z,33.35
2022-11-21T05:30:30.291Z,34.97
2022-11-21T05:31:32.210Z,32.71
2022-11-21T05:32:30.263Z,32.71
2022-11-21T05:33:31.181Z,32.71
2022-11-21T05:34:30.578Z,32.71
2022-11-21T05:35:31.019Z,33.84
2022-11-21T05:36:30.205Z,36.25
2022-11-21T05:37:30.288Z,49.31
2022-11-21T05:38:30.198Z,44.47
2022-11-21T05:39:31.306Z,35.93
2022-11-21T05:40:30.146Z,47.21
2022-11-21T05:41:30.232Z,52.21
2022-11-21T05:42:30.162Z,32.55
2022-11-21T05:43:30.216Z,32.87
2022-11-21T05:44:30.547Z,33.03
2022-11-21T05:45:31.935Z,32.55
2022-11-21T05:46:30.087Z,32.39
2022-11-21T05:47:33.305Z,32.87
2022-11-21T05:48:30.053Z,32.87
2022-11-21T05:49:31.543Z,33.03
2022-11-21T05:50:30.067Z,32.07
2022-11-21T05:51:30.574Z,32.23
2022-11-21T05:52:30.045Z,32.07
2022-11-21T05:53:30.569Z,32.87
2022-11-21T05:54:30.282Z,34.32
2022-11-21T05:55:30.932Z,33.84
2022-11-21T05:56:29.922Z,32.87
2022-11-21T05:57:31.358Z,32.55
2022-11-21T05:58:29.952Z,45.92
2022-11-21T05:59:30.494Z,53.50
2022-11-21T06:00:30.051Z,48.98
2022-11-21T06:01:30.792Z,42.86
2022-11-21T06:02:29.904Z,54.46
2022-11-21T06:03:33.270Z,55.75
2022-11-21T06:04:31.000Z,41.41
2022-11-21T06:05:30.341Z,35.29
2022-11-21T06:06:29.910Z,37.06
2022-11-21T06:07:29.974Z,43.83
2022-11-21T06:08:29.908Z,37.06
2022-11-21T06:09:31.517Z,42.22
2022-11-21T06:10:29.923Z,35.29
2022-11-21T06:11:30.120Z,33.84
2022-11-21T06:12:29.736Z,44.79
2022-11-21T06:13:30.520Z,41.25
2022-11-21T06:14:30.214Z,34.16
2022-11-21T06:15:31.991Z,33.68
2022-11-21T06:16:29.891Z,33.35
2022-11-21T06:17:30.201Z,34.00
2022-11-21T06:18:33.883Z,33.35
2022-11-21T06:19:31.363Z,34.00
2022-11-21T06:20:29.937Z,32.87
2022-11-21T06:21:32.945Z,33.19
2022-11-21T06:22:30.004Z,33.35
2022-11-21T06:23:31.823Z,35.29
2022-11-21T06:24:29.928Z,33.35
2022-11-21T06:25:31.655Z,33.19
2022-11-21T06:26:29.616Z,33.35
2022-11-21T06:27:31.896Z,33.84
2022-11-21T06:28:29.615Z,37.54
2022-11-21T06:29:29.811Z,39.96
2022-11-21T06:30:29.622Z,33.19
2022-11-21T06:31:30.283Z,33.03
2022-11-21T06:32:29.658Z,33.52
2022-11-21T06:33:30.011Z,33.84
2022-11-21T06:34:29.810Z,39.16
2022-11-21T06:35:29.881Z,55.27
2022-11-21T06:36:29.604Z,53.01
2022-11-21T06:37:29.700Z,33.35
2022-11-21T06:38:29.498Z,33.68
2022-11-21T06:39:29.954Z,42.54
2022-11-21T06:40:29.454Z,41.41
2022-11-21T06:41:30.467Z,35.77
2022-11-21T06:42:29.353Z,40.77
2022-11-21T06:43:30.145Z,33.35
2022-11-21T06:44:29.561Z,33.68
2022-11-21T06:45:30.583Z,33.35
2022-11-21T06:46:30.130Z,33.03
2022-11-21T06:47:29.882Z,32.71
2022-11-21T06:48:29.223Z,33.68
2022-11-21T06:49:29.565Z,39.80
2022-11-21T06:50:29.996Z,33.19
2022-11-21T06:51:29.340Z,33.68
2022-11-21T06:52:29.126Z,44.15
2022-11-21T06:53:29.936Z,34.00
2022-11-21T06:54:29.501Z,40.44
2022-11-21T06:55:29.560Z,37.38
2022-11-21T06:56:29.084Z,38.19
2022-11-21T06:57:29.744Z,40.61
2022-11-21T06:58:29.046Z,36.90
2022-11-21T06:59:30.207Z,36.58
2022-11-21T07:00:29.042Z,37.87
2022-11-21T07:01:29.466Z,36.74
2022-11-21T07:02:28.985Z,37.87
2022-11-21T07:03:29.112Z,40.61
2022-11-21T07:04:29.181Z,34.97
2022-11-21T07:05:30.122Z,41.89
2022-11-21T07:06:28.955Z,40.44
2022-11-21T07:07:29.018Z,40.61
2022-11-21T07:08:28.903Z,42.06
2022-11-21T07:09:33.925Z,42.86
2022-11-21T07:10:30.007Z,36.58
2022-11-21T07:11:28.981Z,36.90
2022-11-21T07:12:28.854Z,38.35
2022-11-21T07:13:29.032Z,40.61
2022-11-21T07:14:28.824Z,50.27
2022-11-21T07:15:29.230Z,53.33
2022-11-21T07:16:29.587Z,53.66
2022-11-21T07:17:29.133Z,56.40
2022-11-21T07:18:28.763Z,55.91
2022-11-21T07:19:28.997Z,53.33
2022-11-21T07:20:28.778Z,71.70
2022-11-21T07:21:30.055Z,36.74
2022-11-21T07:22:28.791Z,39.96
2022-11-21T07:23:28.830Z,37.54
2022-11-21T07:24:28.690Z,41.09
2022-11-21T07:25:33.804Z,45.12
2022-11-21T07:26:29.876Z,39.16
2022-11-21T07:27:28.768Z,40.77
2022-11-21T07:28:28.716Z,44.79
2022-11-21T07:29:29.404Z,39.80
2022-11-21T07:30:28.688Z,36.90
2022-11-21T07:31:29.737Z,39.48
2022-11-21T07:32:28.607Z,37.06
2022-11-21T07:33:28.560Z,41.57
2022-11-21T07:34:28.696Z,38.35
2022-11-21T07:35:28.542Z,46.89
2022-11-21T07:36:32.331Z,37.38
2022-11-21T07:37:28.836Z,38.19
2022-11-21T07:38:28.548Z,38.35
2022-11-21T07:39:28.871Z,39.64
2022-11-21T07:40:28.781Z,62.20
2022-11-21T07:41:28.471Z,39.48
2022-11-21T07:42:28.441Z,38.19
2022-11-21T07:43:28.530Z,39.80
2022-11-21T07:44:28.458Z,64.29
2022-11-21T07:45:28.478Z,36.90
2022-11-21T07:46:28.563Z,60.75
2022-11-21T07:47:28.451Z,36.58
2022-11-21T07:48:28.358Z,38.35
2022-11-21T07:49:28.900Z,37.87
2022-11-21T07:50:28.352Z,39.32
2022-11-21T07:51:28.761Z,37.71
2022-11-21T07:52:28.645Z,38.67
2022-11-21T07:53:28.516Z,36.58
2022-11-21T07:54:28.269Z,73.96
2022-11-21T07:55:28.271Z,68.16
2022-11-21T07:56:28.301Z,62.04
2022-11-21T07:57:28.816Z,66.06
2022-11-21T07:58:28.370Z,39.64
2022-11-21T07:59:28.589Z,36.42
2022-11-21T08:00:28.233Z,37.22
2022-11-21T08:01:28.389Z,36.25
2022-11-21T08:02:30.134Z,42.70
2022-11-21T08:03:28.316Z,33.03
2022-11-21T08:04:28.237Z,37.06
2022-11-21T08:05:28.654Z,50.43
2022-11-21T08:06:28.148Z,62.52
2022-11-21T08:07:28.342Z,49.95
2022-11-21T08:08:28.165Z,47.53
2022-11-21T08:09:28.647Z,36.58
2022-11-21T08:10:28.326Z,35.13
2022-11-21T08:11:28.268Z,66.39
2022-11-21T08:12:28.079Z,41.57
2022-11-21T08:13:28.450Z,43.18
2022-11-21T08:14:28.060Z,36.42
2022-11-21T08:15:28.932Z,39.96
2022-11-21T08:16:28.326Z,39.64
2022-11-21T08:17:28.200Z,38.19
2022-11-21T08:18:27.937Z,44.15
2022-11-21T08:19:29.400Z,57.20
2022-11-21T08:20:27.949Z,45.28
2022-11-21T08:21:28.755Z,36.42
2022-11-21T08:22:28.048Z,38.67
2022-11-21T08:23:27.942Z,41.41
2022-11-21T08:24:27.832Z,37.54
2022-11-21T08:25:28.810Z,38.67
2022-11-21T08:26:27.857Z,39.16
2022-11-21T08:27:28.809Z,38.67
2022-11-21T08:28:27.870Z,39.16
2022-11-21T08:29:28.906Z,37.54
2022-11-21T08:30:27.736Z,45.60
2022-11-21T08:31:28.273Z,48.82
2022-11-21T08:32:27.898Z,40.77
2022-11-21T08:33:28.035Z,38.03
2022-11-21T08:34:27.888Z,36.25
2022-11-21T08:35:28.852Z,37.54
2022-11-21T08:36:27.689Z,36.74
2022-11-21T08:37:28.360Z,57.20
2022-11-21T08:38:27.665Z,55.75
2022-11-21T08:39:28.441Z,63.16
2022-11-21T08:40:27.818Z,52.53
2022-11-21T08:41:27.882Z,54.95
2022-11-21T08:42:27.570Z,54.79
2022-11-21T08:43:28.534Z,54.95
2022-11-21T08:44:28.405Z,58.01
2022-11-21T08:45:27.854Z,57.20
2022-11-21T08:46:27.610Z,50.43
2022-11-21T08:47:27.898Z,61.55
2022-11-21T08:48:27.474Z,51.56
2022-11-21T08:49:28.054Z,52.05
2022-11-21T08:50:27.513Z,51.08
2022-11-21T08:51:28.221Z,50.43
2022-11-21T08:52:27.673Z,52.37
2022-11-21T08:53:28.020Z,51.88
2022-11-21T08:54:27.727Z,50.76
2022-11-21T08:55:27.846Z,52.05
2022-11-21T08:56:27.404Z,52.53
2022-11-21T08:57:28.188Z,50.60
2022-11-21T08:58:27.415Z,53.33
2022-11-21T08:59:28.456Z,50.92
2022-11-21T09:00:27.318Z,56.24
2022-11-21T09:01:28.479Z,55.11
2022-11-21T09:02:27.317Z,53.50
2022-11-21T09:03:31.006Z,52.69
2022-11-21T09:04:28.697Z,57.69
2022-11-21T09:05:27.667Z,51.24
2022-11-21T09:06:27.232Z,51.08
2022-11-21T09:07:27.539Z,51.08
2022-11-21T09:08:27.240Z,51.56
2022-11-21T09:09:29.003Z,50.92
2022-11-21T09:10:27.174Z,50.76
2022-11-21T09:11:27.605Z,51.40
2022-11-21T09:12:27.145Z,51.88
2022-11-21T09:13:28.556Z,51.56
2022-11-21T09:14:27.460Z,51.72
2022-11-21T09:15:28.250Z,50.92
2022-11-21T09:16:27.098Z,50.43
2022-11-21T09:17:27.128Z,51.08
2022-11-21T09:18:27.098Z,50.43
2022-11-21T09:19:28.980Z,51.08
2022-11-21T09:20:27.103Z,50.43
2022-11-21T09:21:28.360Z,52.05
2022-11-21T09:22:26.993Z,53.01
2022-11-21T09:23:28.127Z,51.88
2022-11-21T09:24:26.986Z,51.72
2022-11-21T09:25:28.631Z,50.27
2022-11-21T09:26:26.973Z,51.40
2022-11-21T09:27:27.419Z,52.05
2022-11-21T09:28:26.917Z,57.04
2022-11-21T09:29:28.679Z,53.33
2022-11-21T09:30:26.877Z,56.56
2022-11-21T09:31:28.315Z,52.53
2022-11-21T09:32:26.884Z,51.72
2022-11-21T09:33:27.269Z,52.05
2022-11-21T09:34:27.331Z,52.05
2022-11-21T09:35:27.953Z,51.56
2022-11-21T09:36:26.794Z,50.92
2022-11-21T09:37:27.158Z,50.11
2022-11-21T09:38:26.885Z,51.56
2022-11-21T09:39:27.892Z,49.95
2022-11-21T09:40:26.750Z,51.56
2022-11-21T09:41:27.230Z,52.05
2022-11-21T09:42:26.719Z,51.72
2022-11-21T09:43:27.601Z,56.40
2022-11-21T09:44:27.034Z,57.04
2022-11-21T09:45:27.671Z,56.40
2022-11-21T09:46:26.716Z,64.13
2022-11-21T09:47:27.273Z,59.62
2022-11-21T09:48:26.619Z,65.90
2022-11-21T09:49:27.847Z,63.16
2022-11-21T09:50:26.627Z,56.72
2022-11-21T09:51:28.035Z,61.71
2022-11-21T09:52:26.586Z,60.59
2022-11-21T09:53:28.208Z,51.40
2022-11-21T09:54:27.055Z,50.92
2022-11-21T09:55:26.969Z,70.58
2022-11-21T09:56:26.610Z,47.21
2022-11-21T09:57:29.559Z,37.38
2022-11-21T09:58:27.492Z,37.87
2022-11-21T09:59:27.154Z,37.87
2022-11-21T10:00:26.550Z,51.56
2022-11-21T10:01:28.453Z,50.76
2022-11-21T10:02:26.469Z,52.21
2022-11-21T10:03:27.147Z,50.92
2022-11-21T10:04:26.807Z,49.95
2022-11-21T10:05:27.103Z,55.91
2022-11-21T10:06:26.374Z,50.27
2022-11-21T10:07:27.088Z,56.07
2022-11-21T10:08:26.385Z,50.92
2022-11-21T10:09:26.930Z,54.30
2022-11-21T10:10:26.316Z,45.60
2022-11-21T10:11:26.554Z,34.16
2022-11-21T10:12:26.288Z,33.19
2022-11-21T10:13:26.687Z,33.03
2022-11-21T10:14:26.476Z,32.55
2022-11-21T10:15:27.446Z,40.61
2022-11-21T10:16:26.318Z,53.50
2022-11-21T10:17:27.746Z,33.19
2022-11-21T10:18:26.214Z,51.72
2022-11-21T10:19:27.859Z,36.74
2022-11-21T10:20:26.389Z,42.70
2022-11-21T10:21:26.715Z,45.60
2022-11-21T10:22:26.168Z,32.87
2022-11-21T10:23:26.729Z,59.14
2022-11-21T10:24:26.424Z,56.24
2022-11-21T10:25:27.702Z,51.08
2022-11-21T10:26:26.158Z,47.86
2022-11-21T10:27:26.899Z,47.21
2022-11-21T10:28:26.089Z,47.05
2022-11-21T10:29:27.399Z,47.05
2022-11-21T10:30:26.088Z,47.86
2022-11-21T10:31:26.886Z,54.62
2022-11-21T10:32:26.059Z,59.30
2022-11-21T10:33:26.651Z,59.14
2022-11-21T10:34:26.146Z,45.44
2022-11-21T10:35:26.273Z,46.73
2022-11-21T10:36:25.965Z,47.21
2022-11-21T10:37:26.462Z,45.76
2022-11-21T10:38:25.990Z,41.09
2022-11-21T10:39:26.304Z,35.93
2022-11-21T10:40:26.067Z,36.90
2022-11-21T10:41:26.479Z,39.64
2022-11-21T10:42:25.872Z,52.69
2022-11-21T10:43:26.375Z,42.06
2022-11-21T10:44:26.299Z,35.45
2022-11-21T10:45:26.332Z,35.45
2022-11-21T10:46:25.828Z,36.25
2022-11-21T10:47:26.965Z,49.79
2022-11-21T10:48:25.797Z,35.13
2022-11-21T10:49:26.808Z,36.58
2022-11-21T10:50:25.986Z,48.98
2022-11-21T10:51:26.287Z,39.64
2022-11-21T10:52:25.736Z,45.12
2022-11-21T10:53:25.918Z,55.43
2022-11-21T10:54:25.889Z,62.20
2022-11-21T10:55:26.312Z,35.45
2022-11-21T10:56:25.978Z,54.46
2022-11-21T10:57:27.213Z,36.90
2022-11-21T10:58:25.650Z,37.54
2022-11-21T10:59:30.445Z,57.69
2022-11-21T11:00:26.639Z,44.63
2022-11-21T11:01:25.897Z,40.61
2022-11-21T11:02:25.639Z,64.94
2022-11-21T11:03:26.099Z,38.35
2022-11-21T11:04:28.121Z,34.64
2022-11-21T11:05:26.282Z,35.45
2022-11-21T11:06:25.582Z,55.11
2022-11-21T11:07:25.923Z,36.25
2022-11-21T11:08:25.536Z,69.13
2022-11-21T11:09:25.943Z,41.89
2022-11-21T11:10:27.988Z,46.57
2022-11-21T11:11:27.001Z,44.31
2022-11-21T11:12:25.461Z,49.95
2022-11-21T11:14:26.998Z,63.00
2022-11-21T11:15:26.915Z,46.08
2022-11-21T11:16:25.585Z,42.70
2022-11-21T11:17:25.906Z,39.16
2022-11-21T11:18:25.369Z,34.16
2022-11-21T11:19:34.202Z,42.70
2022-11-21T11:20:26.592Z,48.18
2022-11-21T11:21:26.736Z,32.39
2022-11-21T11:22:25.324Z,32.23
2022-11-21T11:23:25.921Z,32.07
2022-11-21T11:24:25.279Z,32.87
2022-11-21T11:25:25.654Z,49.79
2022-11-21T11:26:25.421Z,34.80
2022-11-21T11:27:25.605Z,50.43
2022-11-21T11:28:25.226Z,38.19
2022-11-21T11:29:27.126Z,32.71
2022-11-21T11:30:25.205Z,56.40
2022-11-21T11:31:26.239Z,49.63
2022-11-21T11:32:25.331Z,53.50
2022-11-21T11:33:25.940Z,45.44
2022-11-21T11:34:25.149Z,48.18
2022-11-21T11:35:25.582Z,32.39
2022-11-21T11:36:26.252Z,50.92
2022-11-21T11:37:25.986Z,34.80
2022-11-21T11:38:25.470Z,49.79
2022-11-21T11:39:26.325Z,44.96
2022-11-21T11:40:25.061Z,36.90
2022-11-21T11:41:26.469Z,46.41
2022-11-21T11:42:25.030Z,39.16
2022-11-21T11:43:25.431Z,34.16
2022-11-21T11:44:25.271Z,34.00
2022-11-21T11:45:25.306Z,37.22
2022-11-21T11:46:24.976Z,36.90
2022-11-21T11:47:25.005Z,45.92
2022-11-21T11:48:24.975Z,50.76
2022-11-21T11:49:24.962Z,43.67
2022-11-21T11:50:25.312Z,54.79
2022-11-21T11:51:24.922Z,53.01
2022-11-21T11:52:25.854Z,33.03
2022-11-21T11:53:24.926Z,32.39
2022-11-21T11:54:24.868Z,48.82
2022-11-21T11:55:24.886Z,32.07
2022-11-21T11:56:25.351Z,32.07
2022-11-21T11:57:24.867Z,33.03
2022-11-21T11:58:24.825Z,32.39
2022-11-21T11:59:24.837Z,32.23
2022-11-21T12:00:24.812Z,32.23
2022-11-21T12:01:24.836Z,33.84
2022-11-21T12:02:25.357Z,39.48
2022-11-21T12:03:24.838Z,37.38
2022-11-21T12:04:24.725Z,42.86
2022-11-21T12:05:24.741Z,38.03
2022-11-21T12:06:43.501Z,40.44
2022-11-21T12:08:42.561Z,62.84
2022-11-21T12:09:27.899Z,39.48
2022-11-21T12:10:24.645Z,41.73
2022-11-21T12:11:25.303Z,42.86
2022-11-21T12:12:24.605Z,43.18
2022-11-21T12:13:24.792Z,44.47
2022-11-21T12:14:24.601Z,35.45
2022-11-21T12:15:24.599Z,37.87
2022-11-21T12:16:24.690Z,40.61
2022-11-21T12:17:26.821Z,41.09
2022-11-21T12:18:24.548Z,38.83
2022-11-21T12:19:25.246Z,36.58
2022-11-21T12:20:24.545Z,35.45
2022-11-21T12:21:24.542Z,36.58
2022-11-21T12:22:24.475Z,40.93
2022-11-21T12:23:24.507Z,35.29
2022-11-21T12:24:24.459Z,39.48
2022-11-21T12:25:24.639Z,38.03
2022-11-21T12:26:24.507Z,39.96
2022-11-21T12:27:24.424Z,50.43
2022-11-21T12:28:24.404Z,51.88
2022-11-21T12:29:24.438Z,40.12
2022-11-21T12:30:24.414Z,39.48
2022-11-21T12:31:24.808Z,38.99
2022-11-21T12:32:24.363Z,39.48
2022-11-21T12:33:24.371Z,78.79
2022-11-21T12:34:24.384Z,36.42
2022-11-21T12:35:24.297Z,55.43
2022-11-21T12:36:24.345Z,34.97
2022-11-21T12:37:24.686Z,31.90
2022-11-21T12:38:24.268Z,32.55
2022-11-21T12:39:24.249Z,32.07
2022-11-21T12:40:24.252Z,32.07
2022-11-21T12:41:24.257Z,48.18
2022-11-21T12:42:24.231Z,31.90
2022-11-21T12:43:24.350Z,31.74
2022-11-21T12:44:24.218Z,35.45
2022-11-21T12:45:24.151Z,31.74
2022-11-21T12:46:24.161Z,40.44
2022-11-21T12:47:24.128Z,41.57
2022-11-21T12:48:24.132Z,32.39
2022-11-21T12:49:24.326Z,33.19
2022-11-21T12:50:24.100Z,32.87
2022-11-21T12:51:24.067Z,32.07
2022-11-21T12:52:24.071Z,32.07
2022-11-21T12:53:24.089Z,45.92
2022-11-21T12:54:24.052Z,33.19